createdAt,value
2023-04-08T00:01:53.224Z,100125.97
2023-04-08T00:04:21.387Z,100124.59
2023-04-08T00:06:50.531Z,100126.06
2023-04-08T00:09:18.849Z,100122.38
2023-04-08T00:11:46.808Z,100119.53
2023-04-08T00:14:14.770Z,100117.03
2023-04-08T00:16:42.757Z,100118.47
2023-04-08T00:19:12.453Z,100122.13
2023-04-08T00:21:40.699Z,100115.94
2023-04-08T00:24:08.638Z,100115.09
2023-04-08T00:26:36.551Z,100109.75
2023-04-08T00:29:04.498Z,100104.09
2023-04-08T00:31:32.440Z,100100.03
2023-04-08T00:34:00.471Z,100104.72
2023-04-08T00:36:29.842Z,100106.09
2023-04-08T00:38:57.869Z,100109.44
2023-04-08T00:41:25.940Z,100107.75
2023-04-08T00:43:53.924Z,100102.13
2023-04-08T00:46:22.066Z,100101.13
2023-04-08T00:48:50.384Z,100095.78
2023-04-08T00:51:18.466Z,100101.97
2023-04-08T00:53:47.759Z,100089.72
2023-04-08T00:56:15.743Z,100093.47
2023-04-08T00:58:43.700Z,100092.94
2023-04-08T01:01:13.962Z,100092.94
2023-04-08T01:03:46.045Z,100099.75
2023-04-08T01:06:17.195Z,100100.28
2023-04-08T01:08:45.307Z,100091.44
2023-04-08T01:11:14.700Z,100088.59
2023-04-08T01:13:43.514Z,100095.47
2023-04-08T01:16:12.240Z,100081.41
2023-04-08T01:18:40.219Z,100083.91
2023-04-08T01:21:08.170Z,100080.56
2023-04-08T01:23:40.462Z,100067.72
2023-04-08T01:26:10.550Z,100093.94
2023-04-08T01:28:38.566Z,100099.31
2023-04-08T01:31:06.682Z,100092.13
2023-04-08T01:33:34.694Z,100089.59
2023-04-08T01:36:02.682Z,100097.63
2023-04-08T01:38:32.283Z,100089.59
2023-04-08T01:41:00.209Z,100089.88
2023-04-08T01:43:29.540Z,100076.44
2023-04-08T01:45:58.644Z,100083.47
2023-04-08T01:48:26.776Z,100076.72
2023-04-08T01:50:54.762Z,100055.19
2023-04-08T01:53:22.805Z,100084.41
2023-04-08T01:55:53.080Z,100097.06
2023-04-08T01:58:22.402Z,100084.41
2023-04-08T02:00:51.704Z,100086.09
2023-04-08T02:03:20.497Z,100082.78
2023-04-08T02:05:48.690Z,100081.78
2023-04-08T02:08:16.603Z,100087.97
2023-04-08T02:10:44.577Z,100079.25
2023-04-08T02:13:12.557Z,100080.41
2023-04-08T02:15:43.106Z,100077.56
2023-04-08T02:18:14.787Z,100077.03
2023-04-08T02:20:45.981Z,100076.22
2023-04-08T02:23:16.527Z,100076.72
2023-04-08T02:25:46.092Z,100073.06
2023-04-08T02:28:14.138Z,100073.91
2023-04-08T02:30:43.568Z,100071.09
2023-04-08T02:33:13.033Z,100076.44
2023-04-08T02:35:41.404Z,100073.75
2023-04-08T02:38:10.481Z,100075.31
2023-04-08T02:40:38.448Z,100064.41
2023-04-08T02:43:06.507Z,100065.75
2023-04-08T02:45:36.288Z,100062.66
2023-04-08T02:48:05.212Z,100064.69
2023-04-08T02:50:34.626Z,100071.69
2023-04-08T02:53:02.658Z,100069.69
2023-04-08T02:55:30.618Z,100076.38
2023-04-08T02:57:58.556Z,100077.88
2023-04-08T03:00:26.562Z,100083.06
2023-04-08T03:02:55.349Z,100083.56
2023-04-08T03:05:23.536Z,100086.91
2023-04-08T03:07:52.877Z,100082.56
2023-04-08T03:10:21.072Z,100075.38
2023-04-08T03:12:49.079Z,100088.56
2023-04-08T03:15:17.017Z,100083.56
2023-04-08T03:17:44.992Z,100081.72
2023-04-08T03:20:13.194Z,100086.66
2023-04-08T03:22:41.185Z,100081.03
2023-04-08T03:25:11.785Z,100082.72
2023-04-08T03:27:39.786Z,100081.31
2023-04-08T03:30:09.159Z,100069.25
2023-04-08T03:32:37.265Z,100075.97
2023-04-08T03:35:05.680Z,100087.50
2023-04-08T03:37:33.701Z,100089.19
2023-04-08T03:40:01.683Z,100090.75
2023-04-08T03:42:31.173Z,100089.75
2023-04-08T03:44:59.141Z,100098.44
2023-04-08T03:47:27.443Z,100088.56
2023-04-08T03:49:55.606Z,100089.13
2023-04-08T03:52:23.741Z,100087.97
2023-04-08T03:54:51.659Z,100093.34
2023-04-08T03:57:19.580Z,100093.19
2023-04-08T03:59:48.882Z,100094.19
2023-04-08T04:02:16.928Z,100102.91
2023-04-08T04:04:45.034Z,100100.22
2023-04-08T04:07:13.000Z,100109.59
2023-04-08T04:09:40.987Z,100110.31
2023-04-08T04:12:08.930Z,100107.34
2023-04-08T04:14:36.883Z,100100.66
2023-04-08T04:17:06.229Z,100097.63
2023-04-08T04:19:34.209Z,100104.72
2023-04-08T04:22:02.165Z,100112.06
2023-04-08T04:24:30.143Z,100117.78
2023-04-08T04:26:58.060Z,100118.19
2023-04-08T04:29:26.003Z,100124.72
2023-04-08T04:31:53.942Z,100134.00
2023-04-08T04:34:23.590Z,100131.63
2023-04-08T04:36:51.576Z,100129.63
2023-04-08T04:39:19.552Z,100140.56
2023-04-08T04:41:49.207Z,100138.56
2023-04-08T04:44:17.194Z,100139.41
2023-04-08T04:46:45.284Z,100139.63
2023-04-08T04:49:13.241Z,100141.88
2023-04-08T04:51:42.587Z,100147.88
2023-04-08T04:54:10.502Z,100135.88
2023-04-08T04:56:38.463Z,100136.91
2023-04-08T04:59:06.780Z,100141.66
2023-04-08T05:01:34.759Z,100146.72
2023-04-08T05:04:02.789Z,100141.06
2023-04-08T05:06:31.059Z,100142.09
2023-04-08T05:09:00.479Z,100137.78
2023-04-08T05:11:28.436Z,100141.91
2023-04-08T05:13:56.432Z,100136.53
2023-04-08T05:16:24.514Z,100139.16
2023-04-08T05:18:52.838Z,100142.50
2023-04-08T05:21:21.084Z,100140.00
2023-04-08T05:23:49.044Z,100141.59
2023-04-08T05:26:20.272Z,100149.16
2023-04-08T05:28:48.601Z,100148.41
2023-04-08T05:31:17.275Z,100146.91
2023-04-08T05:33:45.271Z,100152.31
2023-04-08T05:36:13.238Z,100153.31
2023-04-08T05:38:42.684Z,100150.16
2023-04-08T05:41:10.663Z,100155.81
2023-04-08T05:43:39.929Z,100157.50
2023-04-08T05:46:08.525Z,100155.19
2023-04-08T05:48:36.525Z,100147.19
2023-04-08T05:51:04.525Z,100148.53
2023-04-08T05:53:32.480Z,100150.22
2023-04-08T05:56:00.419Z,100148.94
2023-04-08T05:58:28.371Z,100154.84
2023-04-08T06:00:57.681Z,100154.69
2023-04-08T06:03:25.807Z,100159.41
2023-04-08T06:05:53.896Z,100156.25
2023-04-08T06:08:22.032Z,100161.28
2023-04-08T06:10:51.188Z,100155.09
2023-04-08T06:13:20.362Z,100154.94
2023-04-08T06:15:48.949Z,100159.44
2023-04-08T06:18:18.380Z,100162.13
2023-04-08T06:20:46.517Z,100161.44
2023-04-08T06:23:14.502Z,100160.41
2023-04-08T06:25:42.583Z,100155.72
2023-04-08T06:28:10.548Z,100158.06
2023-04-08T06:30:38.495Z,100156.38
2023-04-08T06:33:06.441Z,100161.56
2023-04-08T06:35:36.031Z,100163.78
2023-04-08T06:38:04.014Z,100158.97
2023-04-08T06:40:31.952Z,100162.13
2023-04-08T06:42:59.940Z,100168.16
2023-04-08T06:45:28.567Z,100165.63
2023-04-08T06:47:57.013Z,100165.59
2023-04-08T06:50:24.967Z,100171.47
2023-04-08T06:52:55.171Z,100164.88
2023-04-08T06:55:23.143Z,100173.31
2023-04-08T06:57:51.426Z,100172.91
2023-04-08T07:00:19.611Z,100165.63
2023-04-08T07:02:47.642Z,100177.44
2023-04-08T07:05:15.825Z,100171.78
2023-04-08T07:07:43.771Z,100171.41
2023-04-08T07:10:14.071Z,100170.81
2023-04-08T07:12:41.996Z,100178.84
2023-04-08T07:15:11.008Z,100178.84
2023-04-08T07:17:39.604Z,100181.81
2023-04-08T07:20:08.788Z,100178.47
2023-04-08T07:22:36.721Z,100178.59
2023-04-08T07:25:04.695Z,100184.09
2023-04-08T07:27:34.804Z,100179.91
2023-04-08T07:30:02.955Z,100179.16
2023-04-08T07:32:30.920Z,100176.69
2023-04-08T07:34:59.804Z,100181.53
2023-04-08T07:37:27.783Z,100177.88
2023-04-08T07:39:55.730Z,100173.78
2023-04-08T07:42:23.634Z,100166.84
2023-04-08T07:44:53.284Z,100176.44
2023-04-08T07:47:21.297Z,100167.81
2023-04-08T07:49:49.280Z,100173.19
2023-04-08T07:52:17.838Z,100176.91
2023-04-08T07:54:45.793Z,100174.78
2023-04-08T07:57:13.953Z,100178.63
2023-04-08T07:59:42.011Z,100183.13
2023-04-08T08:02:11.872Z,100181.19
2023-04-08T08:04:40.078Z,100187.78
2023-04-08T08:07:08.196Z,100182.38
2023-04-08T08:09:36.116Z,100180.81
2023-04-08T08:12:04.077Z,100178.09
2023-04-08T08:14:32.052Z,100170.91
2023-04-08T08:16:59.979Z,100182.72
2023-04-08T08:19:29.243Z,100177.91
2023-04-08T08:21:57.719Z,100180.47
2023-04-08T08:24:25.998Z,100177.44
2023-04-08T08:26:53.948Z,100176.63
2023-04-08T08:29:21.906Z,100173.28
2023-04-08T08:31:49.938Z,100172.66
2023-04-08T08:34:18.179Z,100172.22
2023-04-08T08:36:47.481Z,100172.84
2023-04-08T08:39:15.531Z,100169.72
2023-04-08T08:41:43.487Z,100166.75
2023-04-08T08:44:11.461Z,100166.94
2023-04-08T08:46:39.575Z,100163.41
2023-04-08T08:49:07.521Z,100166.53
2023-04-08T08:51:35.468Z,100170.22
2023-04-08T08:54:05.255Z,100175.94
2023-04-08T08:56:34.385Z,100168.44
2023-04-08T08:59:02.460Z,100179.38
2023-04-08T09:01:34.289Z,100173.94
2023-04-08T09:04:19.911Z,100176.84
2023-04-08T09:06:50.138Z,100176.81
2023-04-08T09:09:19.626Z,100179.22
2023-04-08T09:11:48.270Z,100187.59
2023-04-08T09:14:20.358Z,100179.41
2023-04-08T09:16:48.496Z,100175.38
2023-04-08T09:19:16.599Z,100188.25
2023-04-08T09:21:44.581Z,100179.31
2023-04-08T09:24:30.269Z,100184.78
2023-04-08T09:26:58.204Z,100191.69
2023-04-08T09:29:27.611Z,100176.34
2023-04-08T09:31:57.739Z,100174.94
2023-04-08T09:34:26.623Z,100171.84
2023-04-08T09:36:54.844Z,100179.34
2023-04-08T09:39:22.985Z,100179.09
2023-04-08T09:41:53.203Z,100165.00
2023-04-08T09:44:22.307Z,100170.59
2023-04-08T09:46:57.170Z,100164.56
2023-04-08T09:49:28.008Z,100171.31
2023-04-08T09:52:00.925Z,100170.81
2023-04-08T09:54:33.494Z,100172.13
2023-04-08T09:57:05.712Z,100171.59
2023-04-08T09:59:34.813Z,100175.41
2023-04-08T10:02:02.971Z,100168.72
2023-04-08T10:04:31.036Z,100171.88
2023-04-08T10:06:59.566Z,100167.63
2023-04-08T10:09:28.075Z,100164.56
2023-04-08T10:11:56.019Z,100164.94
2023-04-08T10:14:28.674Z,100166.88
2023-04-08T10:17:25.246Z,100171.63
2023-04-08T10:19:53.318Z,100174.91
2023-04-08T10:22:49.100Z,100166.91
2023-04-08T10:25:35.408Z,100159.13
2023-04-08T10:28:03.846Z,100170.94
2023-04-08T10:30:43.470Z,100154.44
2023-04-08T10:33:12.264Z,100159.59
2023-04-08T10:35:42.984Z,100156.38
2023-04-08T10:38:11.785Z,100152.16
2023-04-08T10:40:41.467Z,100146.22
2023-04-08T10:43:09.523Z,100151.91
2023-04-08T10:45:37.659Z,100139.22
2023-04-08T10:48:19.716Z,100141.59
2023-04-08T10:50:54.484Z,100133.88
2023-04-08T10:53:29.289Z,100141.28
2023-04-08T10:56:05.050Z,100129.91
2023-04-08T10:58:33.080Z,100134.19
2023-04-08T11:01:05.041Z,100131.75
2023-04-08T11:03:35.229Z,100131.03
2023-04-08T11:06:03.534Z,100135.66
2023-04-08T11:08:32.458Z,100129.53
2023-04-08T11:11:01.396Z,100121.22
2023-04-08T11:13:29.340Z,100120.63
2023-04-08T11:15:57.414Z,100119.13
2023-04-08T11:18:25.416Z,100112.88
2023-04-08T11:20:54.952Z,100109.66
2023-04-08T11:23:23.219Z,100106.69
2023-04-08T11:25:51.528Z,100104.03
2023-04-08T11:28:19.474Z,100082.97
2023-04-08T11:30:48.244Z,100099.53
2023-04-08T11:33:16.796Z,100099.63
2023-04-08T11:35:45.004Z,100109.97
2023-04-08T11:38:14.351Z,100106.66
2023-04-08T11:40:42.333Z,100097.22
2023-04-08T11:43:10.805Z,100098.13
2023-04-08T11:45:39.638Z,100105.00
2023-04-08T11:48:10.984Z,100100.06
2023-04-08T11:50:38.958Z,100101.59
2023-04-08T11:53:19.678Z,100099.09
2023-04-08T11:55:48.518Z,100093.13
2023-04-08T11:58:16.487Z,100090.09
2023-04-08T12:00:45.691Z,100089.66
2023-04-08T12:03:14.136Z,100092.97
2023-04-08T12:05:42.693Z,100082.84
2023-04-08T12:08:10.726Z,100087.53
2023-04-08T12:10:40.061Z,100080.88
2023-04-08T12:13:08.594Z,100085.44
2023-04-08T12:15:36.501Z,100072.69
2023-04-08T12:18:04.654Z,100079.50
2023-04-08T12:20:32.703Z,100079.81
2023-04-08T12:23:00.812Z,100073.22
2023-04-08T12:25:29.183Z,100076.16
2023-04-08T12:27:58.465Z,100080.41
2023-04-08T12:30:26.709Z,100073.69
2023-04-08T12:32:55.393Z,100081.25
2023-04-08T12:35:23.466Z,100081.25
2023-04-08T12:37:51.422Z,100071.63
2023-04-08T12:40:20.572Z,100066.34
2023-04-08T12:42:48.567Z,100066.84
2023-04-08T12:45:17.928Z,100069.84
2023-04-08T12:47:45.944Z,100067.75
2023-04-08T12:50:15.186Z,100069.09
2023-04-08T12:52:43.087Z,100071.13
2023-04-08T12:55:11.814Z,100071.34
2023-04-08T12:57:39.785Z,100068.41
2023-04-08T13:00:09.515Z,100062.97
2023-04-08T13:02:38.997Z,100063.75
2023-04-08T13:05:07.526Z,100060.41
2023-04-08T13:07:35.528Z,100058.84
2023-04-08T13:10:03.690Z,100059.16
2023-04-08T13:12:32.257Z,100060.75
2023-04-08T13:15:01.303Z,100060.50
2023-04-08T13:17:29.311Z,100056.44
2023-04-08T13:19:58.603Z,100057.25
2023-04-08T13:22:26.657Z,100060.38
2023-04-08T13:24:54.587Z,100054.84
2023-04-08T13:27:22.549Z,100056.59
2023-04-08T13:29:50.476Z,100052.94
2023-04-08T13:32:18.475Z,100049.31
2023-04-08T13:34:46.479Z,100049.84
2023-04-08T13:37:15.834Z,100050.69
2023-04-08T13:39:43.759Z,100050.53
2023-04-08T13:42:11.661Z,100053.06
2023-04-08T13:44:40.028Z,100053.25
2023-04-08T13:47:08.071Z,100054.00
2023-04-08T13:49:35.980Z,100061.66
2023-04-08T13:52:03.933Z,100056.41
2023-04-08T13:54:33.241Z,100054.19
2023-04-08T13:57:01.275Z,100067.09
2023-04-08T13:59:29.243Z,100056.44
2023-04-08T14:01:57.306Z,100058.09
2023-04-08T14:04:25.398Z,100055.13
2023-04-08T14:06:53.416Z,100058.09
2023-04-08T14:09:21.458Z,100057.28
2023-04-08T14:11:50.850Z,100062.16
2023-04-08T14:14:18.813Z,100056.78
2023-04-08T14:16:46.816Z,100058.59
2023-04-08T14:19:15.357Z,100055.63
2023-04-08T14:21:43.449Z,100056.13
2023-04-08T14:24:11.462Z,100055.94
2023-04-08T14:26:39.446Z,100057.28
2023-04-08T14:29:08.875Z,100051.88
2023-04-08T14:31:36.975Z,100040.69
2023-04-08T14:34:05.104Z,100041.84
2023-04-08T14:36:33.089Z,100042.97
2023-04-08T14:39:01.116Z,100050.81
2023-04-08T14:41:29.053Z,100051.66
2023-04-08T14:43:57.025Z,100046.03
2023-04-08T14:46:28.888Z,100048.69
2023-04-08T14:48:57.247Z,100042.72
2023-04-08T14:51:25.185Z,100045.63
2023-04-08T14:53:53.162Z,100038.34
2023-04-08T14:56:21.245Z,100030.81
2023-04-08T14:58:49.524Z,100027.09
2023-04-08T15:01:17.638Z,100040.34
2023-04-08T15:03:47.531Z,100030.81
2023-04-08T15:06:17.774Z,100036.63
2023-04-08T15:08:45.880Z,100029.25
2023-04-08T15:11:13.900Z,100028.97
2023-04-08T15:13:41.884Z,100042.34
2023-04-08T15:16:09.955Z,100030.06
2023-04-08T15:18:37.990Z,100040.56
2023-04-08T15:21:07.356Z,100035.16
2023-04-08T15:23:35.569Z,100028.41
2023-04-08T15:26:03.510Z,100037.47
2023-04-08T15:28:31.487Z,100038.25
2023-04-08T15:30:59.455Z,100040.63
2023-04-08T15:33:27.479Z,100040.25
2023-04-08T15:35:56.159Z,100036.53
2023-04-08T15:38:26.667Z,100037.47
2023-04-08T15:40:54.699Z,100038.88
2023-04-08T15:43:22.773Z,100038.13
2023-04-08T15:45:50.719Z,100041.91
2023-04-08T15:48:18.914Z,100042.34
2023-04-08T15:50:46.886Z,100043.19
2023-04-08T15:53:14.916Z,100047.75
2023-04-08T15:55:44.538Z,100040.69
2023-04-08T15:58:12.471Z,100044.13
2023-04-08T16:00:40.448Z,100046.97
2023-04-08T16:03:11.974Z,100048.28
2023-04-08T16:05:41.760Z,100049.06
2023-04-08T16:08:10.120Z,100050.88
2023-04-08T16:10:38.147Z,100038.78
2023-04-08T16:13:07.721Z,100040.56
2023-04-08T16:15:36.146Z,100040.06
2023-04-08T16:18:04.542Z,100042.47
2023-04-08T16:20:32.744Z,100039.88
2023-04-08T16:23:00.712Z,100041.47
2023-04-08T16:25:28.813Z,100038.47
2023-04-08T16:27:56.716Z,100040.09
2023-04-08T16:30:26.536Z,100044.56
2023-04-08T16:32:54.769Z,100044.03
2023-04-08T16:35:22.809Z,100039.94
2023-04-08T16:37:50.781Z,100043.59
2023-04-08T16:40:18.865Z,100054.47
2023-04-08T16:42:47.295Z,100053.63
2023-04-08T16:45:15.845Z,100055.38
2023-04-08T16:47:46.022Z,100058.34
2023-04-08T16:50:14.081Z,100070.72
2023-04-08T16:52:43.914Z,100075.31
2023-04-08T16:55:14.514Z,100042.38
2023-04-08T16:57:42.527Z,100079.00
2023-04-08T17:00:11.348Z,100083.28
2023-04-08T17:02:39.545Z,100078.59
2023-04-08T17:05:09.628Z,100080.16
2023-04-08T17:07:37.604Z,100084.19
2023-04-08T17:10:06.294Z,100079.25
2023-04-08T17:12:34.776Z,100079.34
2023-04-08T17:15:02.727Z,100090.16
2023-04-08T17:17:30.987Z,100093.41
2023-04-08T17:19:59.698Z,100093.63
2023-04-08T17:22:28.978Z,100082.94
2023-04-08T17:24:56.920Z,100084.81
2023-04-08T17:27:24.896Z,100090.06
2023-04-08T17:29:57.704Z,100095.81
2023-04-08T17:32:25.880Z,100097.53
2023-04-08T17:34:53.918Z,100103.13
2023-04-08T17:37:21.934Z,100103.66
2023-04-08T17:39:51.754Z,100107.38
2023-04-08T17:42:22.470Z,100121.81
2023-04-08T17:44:50.466Z,100125.38
2023-04-08T17:47:18.443Z,100134.25
2023-04-08T17:49:46.444Z,100138.28
2023-04-08T17:52:14.505Z,100134.59
2023-04-08T17:54:42.575Z,100146.00
2023-04-08T17:57:11.918Z,100144.50
2023-04-08T17:59:39.841Z,100138.44
2023-04-08T18:02:07.889Z,100151.34
2023-04-08T18:04:35.962Z,100152.19
2023-04-08T18:07:05.381Z,100155.25
2023-04-08T18:09:33.370Z,100154.56
2023-04-08T18:12:01.275Z,100156.41
2023-04-08T18:14:30.902Z,100169.16
2023-04-08T18:16:58.893Z,100164.78
2023-04-08T18:19:27.062Z,100167.13
2023-04-08T18:21:55.429Z,100169.16
2023-04-08T18:24:23.451Z,100175.19
2023-04-08T18:27:01.492Z,100183.03
2023-04-08T18:29:33.166Z,100177.19
2023-04-08T18:32:01.138Z,100171.13
2023-04-08T18:34:29.150Z,100178.31
2023-04-08T18:36:57.890Z,100188.88
2023-04-08T18:39:26.241Z,100180.13
2023-04-08T18:41:54.202Z,100175.09
2023-04-08T18:44:23.421Z,100179.97
2023-04-08T18:46:52.781Z,100174.06
2023-04-08T18:49:20.970Z,100186.09
2023-04-08T18:52:01.188Z,100193.13
2023-04-08T18:54:30.265Z,100186.72
2023-04-08T18:56:58.266Z,100189.38
2023-04-08T18:59:27.815Z,100190.84
2023-04-08T19:01:57.323Z,100190.34
2023-04-08T19:04:25.513Z,100195.47
2023-04-08T19:06:53.563Z,100199.75
2023-04-08T19:09:21.518Z,100193.72
2023-04-08T19:11:49.539Z,100193.50
2023-04-08T19:14:17.742Z,100197.44
2023-04-08T19:16:46.073Z,100200.13
2023-04-08T19:19:16.267Z,100201.25
2023-04-08T19:21:44.318Z,100206.41
2023-04-08T19:24:12.484Z,100205.06
2023-04-08T19:26:40.525Z,100202.00
2023-04-08T19:29:09.413Z,100205.97
2023-04-08T19:31:37.840Z,100203.72
2023-04-08T19:34:05.987Z,100209.88
2023-04-08T19:36:35.349Z,100206.91
2023-04-08T19:39:03.701Z,100199.84
2023-04-08T19:41:31.649Z,100205.22
2023-04-08T19:43:59.580Z,100202.47
2023-04-08T19:46:28.517Z,100199.47
2023-04-08T19:48:58.191Z,100207.81
2023-04-08T19:51:27.484Z,100207.28
2023-04-08T19:53:56.781Z,100205.75
2023-04-08T19:56:25.606Z,100206.72
2023-04-08T19:58:53.927Z,100213.00
2023-04-08T20:01:22.370Z,100213.63
2023-04-08T20:03:52.330Z,100209.56
2023-04-08T20:06:20.630Z,100211.78
2023-04-08T20:08:50.426Z,100218.03
2023-04-08T20:11:20.018Z,100221.38
2023-04-08T20:13:49.454Z,100217.72
2023-04-08T20:16:17.504Z,100216.34
2023-04-08T20:18:45.451Z,100223.13
2023-04-08T20:21:14.741Z,100224.59
2023-04-08T20:23:44.461Z,100217.16
2023-04-08T20:26:13.148Z,100222.72
2023-04-08T20:28:43.854Z,100214.00
2023-04-08T20:31:11.797Z,100218.34
2023-04-08T20:33:43.768Z,100223.00
2023-04-08T20:36:12.466Z,100224.13
2023-04-08T20:38:40.770Z,100222.44
2023-04-08T20:41:08.751Z,100216.84
2023-04-08T20:43:36.691Z,100222.81
2023-04-08T20:46:06.172Z,100214.06
2023-04-08T20:48:34.560Z,100217.50
2023-04-08T20:51:02.912Z,100217.25
2023-04-08T20:53:31.512Z,100208.81
2023-04-08T20:55:59.496Z,100212.78
2023-04-08T20:58:27.397Z,100215.31
2023-04-08T21:00:55.403Z,100215.75
2023-04-08T21:03:24.935Z,100219.00
2023-04-08T21:05:52.993Z,100211.28
2023-04-08T21:08:20.964Z,100211.03
2023-04-08T21:10:48.947Z,100224.94
2023-04-08T21:13:16.882Z,100227.22
2023-04-08T21:15:44.788Z,100225.81
2023-04-08T21:18:12.713Z,100220.59
2023-04-08T21:20:42.181Z,100224.25
2023-04-08T21:23:10.133Z,100217.09
2023-04-08T21:25:38.059Z,100212.72
2023-04-08T21:28:06.048Z,100217.09
2023-04-08T21:30:34.057Z,100221.44
2023-04-08T21:33:02.034Z,100216.81
2023-04-08T21:35:29.967Z,100208.53
2023-04-08T21:37:59.434Z,100202.72
2023-04-08T21:40:27.404Z,100202.19
2023-04-08T21:42:55.467Z,100203.03
2023-04-08T21:45:23.378Z,100199.63
2023-04-08T21:47:51.434Z,100198.50
2023-04-08T21:50:19.709Z,100203.69
2023-04-08T21:52:47.640Z,100201.84
2023-04-08T21:55:16.963Z,100202.53
2023-04-08T21:57:44.949Z,100203.94
2023-04-08T22:00:14.487Z,100199.97
2023-04-08T22:02:42.620Z,100202.38
2023-04-08T22:05:11.825Z,100205.03
2023-04-08T22:07:39.766Z,100206.03
2023-04-08T22:10:09.019Z,100205.22
2023-04-08T22:12:38.336Z,100203.25
2023-04-08T22:15:07.546Z,100205.50
2023-04-08T22:17:35.501Z,100202.28
2023-04-08T22:20:03.520Z,100209.75
2023-04-08T22:22:31.460Z,100206.38
2023-04-08T22:24:59.414Z,100215.81
2023-04-08T22:27:29.168Z,100214.25
2023-04-08T22:29:58.526Z,100215.56
2023-04-08T22:32:26.560Z,100213.28
2023-04-08T22:34:54.503Z,100219.09
2023-04-08T22:37:22.442Z,100215.41
2023-04-08T22:39:50.490Z,100222.03
2023-04-08T22:42:18.444Z,100223.72
2023-04-08T22:44:46.421Z,100217.66
2023-04-08T22:47:15.700Z,100213.16
2023-04-08T22:49:43.644Z,100217.66
2023-04-08T22:52:11.610Z,100214.03
2023-04-08T22:54:39.655Z,100214.03
2023-04-08T22:57:07.624Z,100212.06
2023-04-08T22:59:35.572Z,100212.06
2023-04-08T23:02:03.648Z,100208.22
2023-04-08T23:04:33.119Z,100215.13
2023-04-08T23:07:01.167Z,100199.81
2023-04-08T23:09:29.080Z,100202.19
2023-04-08T23:11:57.451Z,100201.88
2023-04-08T23:14:25.553Z,100205.00
2023-04-08T23:16:53.552Z,100194.00
2023-04-08T23:19:21.476Z,100203.56
2023-04-08T23:21:51.245Z,100203.28
2023-04-08T23:24:19.164Z,100202.69
2023-04-08T23:26:48.707Z,100203.53
2023-04-08T23:29:16.662Z,100195.13
2023-04-08T23:31:44.802Z,100200.44
2023-04-08T23:34:12.881Z,100194.63
2023-04-08T23:36:40.815Z,100195.59
2023-04-08T23:39:10.150Z,100193.34
2023-04-08T23:41:38.138Z,100193.19
2023-04-08T23:44:06.412Z,100198.91
2023-04-08T23:46:34.405Z,100192.44
2023-04-08T23:49:02.381Z,100201.69
2023-04-08T23:51:31.424Z,100192.69
2023-04-08T23:53:59.404Z,100188.03
2023-04-08T23:56:28.766Z,100192.09
2023-04-08T23:58:56.803Z,100189.31
